createdAt,value
2018-09-17T00:00:16.431Z,997.55
2018-09-17T00:01:16.608Z,997.55
2018-09-17T00:02:16.791Z,997.52
2018-09-17T00:03:16.966Z,997.51
2018-09-17T00:04:17.141Z,997.49
2018-09-17T00:05:17.310Z,997.52
2018-09-17T00:06:17.490Z,997.51
2018-09-17T00:07:17.663Z,997.51
2018-09-17T00:08:17.839Z,997.49
2018-09-17T00:09:18.019Z,997.49
2018-09-17T00:10:18.203Z,997.44
2018-09-17T00:11:18.373Z,997.45
2018-09-17T00:12:18.555Z,997.45
2018-09-17T00:13:18.738Z,997.45
2018-09-17T00:14:18.916Z,997.45
2018-09-17T00:15:19.089Z,997.45
2018-09-17T00:16:19.270Z,997.47
2018-09-17T00:17:19.454Z,997.47
2018-09-17T00:18:19.630Z,997.46
2018-09-17T00:19:19.811Z,997.49
2018-09-17T00:20:20.000Z,997.44
2018-09-17T00:21:20.178Z,997.46
2018-09-17T00:22:20.365Z,997.39
2018-09-17T00:23:20.544Z,997.39
2018-09-17T00:24:20.728Z,997.36
2018-09-17T00:25:20.912Z,997.41
2018-09-17T00:26:21.096Z,997.39
2018-09-17T00:27:21.269Z,997.43
2018-09-17T00:28:21.447Z,997.44
2018-09-17T00:29:21.639Z,997.42
2018-09-17T00:30:21.809Z,997.41
2018-09-17T00:31:21.988Z,997.40
2018-09-17T00:32:22.166Z,997.40
2018-09-17T00:33:22.339Z,997.36
2018-09-17T00:34:22.525Z,997.38
2018-09-17T00:35:22.718Z,997.37
2018-09-17T00:36:22.895Z,997.38
2018-09-17T00:37:23.077Z,997.35
2018-09-17T00:38:23.252Z,997.40
2018-09-17T00:39:23.421Z,997.39
2018-09-17T00:40:23.598Z,997.35
2018-09-17T00:41:23.779Z,997.39
2018-09-17T00:42:23.954Z,997.40
2018-09-17T00:43:24.141Z,997.43
2018-09-17T00:44:24.329Z,997.41
2018-09-17T00:45:24.500Z,997.40
2018-09-17T00:46:24.675Z,997.39
2018-09-17T00:47:24.852Z,997.37
2018-09-17T00:48:25.025Z,997.36
2018-09-17T00:49:25.200Z,997.32
2018-09-17T00:50:25.387Z,997.33
2018-09-17T00:51:25.565Z,997.37
2018-09-17T00:52:25.747Z,997.33
2018-09-17T00:53:25.915Z,997.34
2018-09-17T00:54:26.092Z,997.38
2018-09-17T00:55:26.269Z,997.36
2018-09-17T00:56:26.444Z,997.38
2018-09-17T00:57:26.624Z,997.40
2018-09-17T00:58:26.804Z,997.39
2018-09-17T00:59:26.982Z,997.37
2018-09-17T01:00:27.143Z,997.32
2018-09-17T01:01:27.334Z,997.36
2018-09-17T01:02:27.507Z,997.31
2018-09-17T01:03:27.677Z,997.34
2018-09-17T01:04:27.860Z,997.33
2018-09-17T01:05:28.038Z,997.34
2018-09-17T01:06:28.218Z,997.34
2018-09-17T01:07:28.389Z,997.30
2018-09-17T01:08:28.596Z,997.33
2018-09-17T01:09:28.742Z,997.29
2018-09-17T01:10:28.915Z,997.32
2018-09-17T01:11:29.092Z,997.32
2018-09-17T01:12:29.273Z,997.28
2018-09-17T01:13:29.447Z,997.32
2018-09-17T01:14:29.624Z,997.31
2018-09-17T01:15:29.805Z,997.27
2018-09-17T01:16:29.985Z,997.32
2018-09-17T01:17:30.156Z,997.28
2018-09-17T01:18:30.334Z,997.26
2018-09-17T01:19:30.514Z,997.28
2018-09-17T01:20:30.693Z,997.28
2018-09-17T01:21:30.868Z,997.28
2018-09-17T01:22:31.049Z,997.31
2018-09-17T01:23:31.220Z,997.30
2018-09-17T01:24:31.394Z,997.33
2018-09-17T01:25:31.573Z,997.33
2018-09-17T01:26:31.760Z,997.35
2018-09-17T01:27:31.929Z,997.35
2018-09-17T01:28:32.117Z,997.37
2018-09-17T01:29:32.304Z,997.36
2018-09-17T01:30:32.505Z,997.38
2018-09-17T01:31:32.686Z,997.40
2018-09-17T01:32:32.836Z,997.40
2018-09-17T01:33:33.016Z,997.41
2018-09-17T01:34:33.174Z,997.41
2018-09-17T01:35:33.344Z,997.43
2018-09-17T01:36:33.524Z,997.47
2018-09-17T01:37:33.712Z,997.44
2018-09-17T01:38:33.884Z,997.45
2018-09-17T01:39:34.061Z,997.44
2018-09-17T01:40:34.232Z,997.47
2018-09-17T01:41:34.413Z,997.41
2018-09-17T01:42:34.587Z,997.42
2018-09-17T01:43:34.764Z,997.40
2018-09-17T01:44:34.944Z,997.39
2018-09-17T01:45:35.119Z,997.38
2018-09-17T01:46:35.305Z,997.42
2018-09-17T01:47:35.480Z,997.40
2018-09-17T01:48:35.658Z,997.43
2018-09-17T01:49:35.839Z,997.47
2018-09-17T01:50:36.016Z,997.49
2018-09-17T01:51:36.197Z,997.49
2018-09-17T01:52:36.374Z,997.48
2018-09-17T01:53:36.554Z,997.48
2018-09-17T01:54:36.729Z,997.46
2018-09-17T01:55:36.898Z,997.40
2018-09-17T01:56:37.081Z,997.40
2018-09-17T01:57:37.260Z,997.40
2018-09-17T01:58:37.442Z,997.38
2018-09-17T01:59:37.625Z,997.43
2018-09-17T02:00:37.814Z,997.44
2018-09-17T02:01:37.989Z,997.45
2018-09-17T02:02:38.161Z,997.49
2018-09-17T02:03:38.405Z,997.49
2018-09-17T02:04:38.449Z,997.52
2018-09-17T02:05:38.626Z,997.52
2018-09-17T02:06:38.802Z,997.55
2018-09-17T02:07:38.984Z,997.52
2018-09-17T02:08:39.198Z,997.51
2018-09-17T02:09:39.333Z,997.54
2018-09-17T02:10:39.517Z,997.51
2018-09-17T02:11:39.686Z,997.52
2018-09-17T02:12:39.865Z,997.51
2018-09-17T02:13:40.039Z,997.52
2018-09-17T02:14:40.213Z,997.55
2018-09-17T02:15:40.386Z,997.55
2018-09-17T02:16:40.565Z,997.55
2018-09-17T02:17:40.734Z,997.55
2018-09-17T02:18:40.912Z,997.52
2018-09-17T02:19:41.091Z,997.55
2018-09-17T02:20:41.267Z,997.53
2018-09-17T02:21:41.447Z,997.55
2018-09-17T02:22:41.616Z,997.54
2018-09-17T02:23:41.788Z,997.55
2018-09-17T02:24:41.956Z,997.54
2018-09-17T02:25:42.127Z,997.52
2018-09-17T02:26:42.312Z,997.55
2018-09-17T02:27:42.485Z,997.53
2018-09-17T02:28:42.657Z,997.50
2018-09-17T02:29:42.831Z,997.52
2018-09-17T02:30:43.008Z,997.50
2018-09-17T02:31:43.184Z,997.51
2018-09-17T02:32:43.358Z,997.45
2018-09-17T02:33:43.529Z,997.46
2018-09-17T02:34:43.703Z,997.47
2018-09-17T02:35:43.876Z,997.44
2018-09-17T02:36:44.054Z,997.49
2018-09-17T02:37:44.238Z,997.46
2018-09-17T02:38:44.411Z,997.45
2018-09-17T02:39:44.592Z,997.46
2018-09-17T02:40:44.763Z,997.49
2018-09-17T02:41:44.946Z,997.47
2018-09-17T02:42:45.118Z,997.47
2018-09-17T02:43:45.297Z,997.45
2018-09-17T02:44:45.472Z,997.45
2018-09-17T02:45:45.657Z,997.46
2018-09-17T02:46:45.838Z,997.45
2018-09-17T02:47:46.008Z,997.42
2018-09-17T02:48:46.183Z,997.46
2018-09-17T02:49:46.357Z,997.44
2018-09-17T02:50:46.537Z,997.46
2018-09-17T02:51:46.711Z,997.45
2018-09-17T02:52:46.887Z,997.44
2018-09-17T02:53:47.067Z,997.52
2018-09-17T02:54:47.258Z,997.49
2018-09-17T02:55:47.435Z,997.51
2018-09-17T02:56:47.613Z,997.53
2018-09-17T02:57:47.792Z,997.61
2018-09-17T02:58:47.971Z,997.64
2018-09-17T02:59:48.160Z,997.64
2018-09-17T03:00:48.339Z,997.65
2018-09-17T03:01:48.516Z,997.69
2018-09-17T03:02:48.697Z,997.72
2018-09-17T03:03:48.866Z,997.68
2018-09-17T03:04:49.046Z,997.68
2018-09-17T03:05:49.230Z,997.62
2018-09-17T03:06:49.401Z,997.62
2018-09-17T03:07:49.583Z,997.61
2018-09-17T03:08:49.765Z,997.59
2018-09-17T03:09:49.945Z,997.56
2018-09-17T03:10:50.144Z,997.49
2018-09-17T03:11:50.337Z,997.48
2018-09-17T03:12:50.504Z,997.47
2018-09-17T03:13:50.681Z,997.42
2018-09-17T03:14:50.857Z,997.44
2018-09-17T03:15:51.034Z,997.41
2018-09-17T03:16:51.205Z,997.42
2018-09-17T03:17:51.385Z,997.42
2018-09-17T03:18:51.564Z,997.42
2018-09-17T03:19:51.744Z,997.43
2018-09-17T03:20:51.922Z,997.43
2018-09-17T03:21:52.105Z,997.48
2018-09-17T03:22:52.281Z,997.44
2018-09-17T03:23:52.469Z,997.41
2018-09-17T03:24:52.645Z,997.41
2018-09-17T03:25:52.826Z,997.45
2018-09-17T03:26:53.001Z,997.44
2018-09-17T03:27:53.182Z,997.41
2018-09-17T03:28:53.356Z,997.41
2018-09-17T03:29:53.533Z,997.43
2018-09-17T03:30:53.714Z,997.41
2018-09-17T03:31:53.891Z,997.40
2018-09-17T03:32:54.074Z,997.39
2018-09-17T03:33:54.253Z,997.40
2018-09-17T03:34:54.432Z,997.41
2018-09-17T03:35:54.603Z,997.40
2018-09-17T03:36:54.781Z,997.37
2018-09-17T03:37:54.962Z,997.37
2018-09-17T03:38:55.135Z,997.36
2018-09-17T03:39:55.319Z,997.36
2018-09-17T03:40:55.485Z,997.37
2018-09-17T03:41:55.659Z,997.37
2018-09-17T03:42:55.837Z,997.36
2018-09-17T03:43:56.013Z,997.37
2018-09-17T03:44:56.196Z,997.37
2018-09-17T03:45:56.384Z,997.38
2018-09-17T03:46:56.552Z,997.34
2018-09-17T03:47:56.731Z,997.36
2018-09-17T03:48:56.907Z,997.33
2018-09-17T03:49:57.084Z,997.35
2018-09-17T03:50:57.269Z,997.35
2018-09-17T03:51:57.468Z,997.35
2018-09-17T03:52:57.651Z,997.37
2018-09-17T03:53:57.841Z,997.40
2018-09-17T03:54:58.022Z,997.40
2018-09-17T03:55:58.195Z,997.39
2018-09-17T03:56:58.414Z,997.41
2018-09-17T03:57:58.550Z,997.39
2018-09-17T03:58:58.736Z,997.40
2018-09-17T03:59:58.920Z,997.44
2018-09-17T04:00:59.097Z,997.44
2018-09-17T04:01:59.266Z,997.46
2018-09-17T04:02:59.443Z,997.46
2018-09-17T04:03:59.624Z,997.45
2018-09-17T04:04:59.806Z,997.49
2018-09-17T04:05:59.994Z,997.45
2018-09-17T04:07:00.178Z,997.45
2018-09-17T04:08:00.343Z,997.42
2018-09-17T04:09:00.530Z,997.47
2018-09-17T04:10:00.714Z,997.44
2018-09-17T04:11:00.900Z,997.44
2018-09-17T04:12:01.068Z,997.44
2018-09-17T04:13:01.251Z,997.39
2018-09-17T04:14:01.428Z,997.39
2018-09-17T04:15:01.595Z,997.41
2018-09-17T04:16:01.769Z,997.38
2018-09-17T04:17:01.946Z,997.38
2018-09-17T04:18:02.129Z,997.40
2018-09-17T04:19:02.306Z,997.43
2018-09-17T04:20:02.483Z,997.45
2018-09-17T04:21:02.669Z,997.43
2018-09-17T04:22:02.840Z,997.44
2018-09-17T04:23:03.067Z,997.45
2018-09-17T04:24:03.194Z,997.47
2018-09-17T04:25:03.374Z,997.48
2018-09-17T04:26:03.557Z,997.50
2018-09-17T04:27:03.736Z,997.50
2018-09-17T04:28:03.911Z,997.53
2018-09-17T04:29:04.088Z,997.52
2018-09-17T04:30:04.271Z,997.51
2018-09-17T04:31:04.455Z,997.54
2018-09-17T04:32:04.685Z,997.56
2018-09-17T04:33:04.810Z,997.53
2018-09-17T04:34:04.914Z,997.56
2018-09-17T04:35:05.084Z,997.57
2018-09-17T04:36:05.260Z,997.54
2018-09-17T04:37:05.437Z,997.53
2018-09-17T04:38:05.619Z,997.54
2018-09-17T04:39:05.795Z,997.56
2018-09-17T04:40:05.987Z,997.56
2018-09-17T04:41:06.175Z,997.61
2018-09-17T04:42:06.359Z,997.61
2018-09-17T04:43:06.541Z,997.64
2018-09-17T04:44:06.718Z,997.59
2018-09-17T04:45:06.891Z,997.61
2018-09-17T04:46:07.073Z,997.63
2018-09-17T04:47:07.252Z,997.63
2018-09-17T04:48:07.432Z,997.62
2018-09-17T04:49:07.729Z,997.65
2018-09-17T04:50:07.791Z,997.65
2018-09-17T04:51:07.979Z,997.67
2018-09-17T04:52:08.160Z,997.69
2018-09-17T04:53:08.336Z,997.66
2018-09-17T04:54:08.509Z,997.69
2018-09-17T04:55:08.699Z,997.70
2018-09-17T04:56:08.892Z,997.74
2018-09-17T04:57:09.150Z,997.74
2018-09-17T04:58:09.187Z,997.72
2018-09-17T04:59:09.360Z,997.72
2018-09-17T05:00:09.570Z,997.74
2018-09-17T05:01:09.734Z,997.72
2018-09-17T05:02:09.930Z,997.75
2018-09-17T05:03:10.107Z,997.75
2018-09-17T05:04:10.284Z,997.76
2018-09-17T05:05:10.456Z,997.77
2018-09-17T05:06:10.630Z,997.80
2018-09-17T05:07:10.874Z,997.76
2018-09-17T05:08:10.994Z,997.78
2018-09-17T05:09:11.173Z,997.77
2018-09-17T05:10:11.353Z,997.79
2018-09-17T05:11:12.512Z,997.74
2018-09-17T05:12:11.675Z,997.76
2018-09-17T05:13:11.933Z,997.77
2018-09-17T05:14:12.042Z,997.74
2018-09-17T05:15:12.215Z,997.79
2018-09-17T05:16:12.384Z,997.74
2018-09-17T05:17:12.565Z,997.78
2018-09-17T05:18:12.739Z,997.76
2018-09-17T05:19:12.922Z,997.79
2018-09-17T05:20:13.114Z,997.76
2018-09-17T05:21:13.307Z,997.82
2018-09-17T05:22:13.482Z,997.82
2018-09-17T05:23:13.668Z,997.81
2018-09-17T05:24:13.836Z,997.82
2018-09-17T05:25:14.016Z,997.77
2018-09-17T05:26:14.198Z,997.80
2018-09-17T05:27:15.864Z,997.76
2018-09-17T05:28:16.073Z,997.75
2018-09-17T05:29:16.519Z,997.73
2018-09-17T05:30:14.978Z,997.68
2018-09-17T05:31:14.947Z,997.67
2018-09-17T05:32:15.127Z,997.69
2018-09-17T05:33:15.308Z,997.64
2018-09-17T05:34:15.475Z,997.69
2018-09-17T05:35:15.673Z,997.70
2018-09-17T05:36:15.848Z,997.72
2018-09-17T05:37:16.034Z,997.73
2018-09-17T05:38:16.202Z,997.75
2018-09-17T05:39:16.382Z,997.72
2018-09-17T05:40:16.556Z,997.74
2018-09-17T05:41:16.739Z,997.76
2018-09-17T05:42:16.918Z,997.78
2018-09-17T05:43:17.098Z,997.81
2018-09-17T05:44:17.357Z,997.81
2018-09-17T05:45:17.492Z,997.86
2018-09-17T05:46:17.675Z,997.81
2018-09-17T05:47:17.864Z,997.79
2018-09-17T05:48:18.055Z,997.80
2018-09-17T05:49:18.226Z,997.77
2018-09-17T05:50:18.409Z,997.83
2018-09-17T05:51:18.596Z,997.77
2018-09-17T05:52:18.789Z,997.78
2018-09-17T05:53:18.960Z,997.77
2018-09-17T05:54:19.146Z,997.76
2018-09-17T05:55:19.321Z,997.77
2018-09-17T05:56:19.501Z,997.77
2018-09-17T05:57:19.680Z,997.76
2018-09-17T05:58:19.859Z,997.84
2018-09-17T05:59:20.044Z,997.84
2018-09-17T06:00:20.211Z,997.83
2018-09-17T06:01:20.382Z,997.89
2018-09-17T06:02:20.560Z,997.90
2018-09-17T06:03:20.741Z,997.94
2018-09-17T06:04:20.916Z,997.95
2018-09-17T06:05:21.092Z,997.94
2018-09-17T06:06:21.265Z,997.95
2018-09-17T06:07:21.440Z,997.96
2018-09-17T06:08:21.619Z,997.98
2018-09-17T06:09:21.839Z,997.96
2018-09-17T06:10:21.927Z,997.98
2018-09-17T06:11:22.157Z,998.00
2018-09-17T06:12:22.306Z,998.01
2018-09-17T06:13:22.983Z,997.99
2018-09-17T06:14:22.664Z,997.96
2018-09-17T06:15:23.129Z,997.99
2018-09-17T06:16:23.052Z,997.98
2018-09-17T06:17:23.232Z,997.98
2018-09-17T06:18:23.396Z,997.95
2018-09-17T06:19:23.802Z,997.95
2018-09-17T06:20:24.090Z,997.96
2018-09-17T06:21:24.021Z,997.98
2018-09-17T06:22:24.131Z,998.02
2018-09-17T06:23:24.636Z,998.00
2018-09-17T06:24:27.756Z,998.06
2018-09-17T06:25:24.948Z,998.09
2018-09-17T06:26:26.200Z,998.30
2018-09-17T06:27:27.751Z,998.52
2018-09-17T06:28:25.141Z,998.68
2018-09-17T06:29:25.093Z,998.71
2018-09-17T06:30:25.264Z,998.75
2018-09-17T06:31:25.448Z,998.78
2018-09-17T06:32:25.618Z,998.76
2018-09-17T06:33:26.027Z,998.78
2018-09-17T06:34:25.985Z,998.81
2018-09-17T06:35:26.170Z,998.81
2018-09-17T06:36:26.512Z,998.84
2018-09-17T06:37:26.934Z,998.78
2018-09-17T06:38:26.698Z,998.85
2018-09-17T06:39:27.528Z,998.83
2018-09-17T06:40:27.222Z,998.85
2018-09-17T06:41:27.679Z,998.84
2018-09-17T06:42:28.003Z,998.87
2018-09-17T06:43:27.829Z,998.82
2018-09-17T06:44:28.081Z,998.84
2018-09-17T06:45:27.774Z,998.85
2018-09-17T06:46:27.949Z,998.86
2018-09-17T06:47:28.126Z,998.90
2018-09-17T06:48:28.325Z,998.92
2018-09-17T06:49:29.044Z,998.92
2018-09-17T06:50:28.729Z,998.93
2018-09-17T06:51:29.196Z,998.94
2018-09-17T06:52:29.016Z,998.95
2018-09-17T06:53:29.200Z,998.88
2018-09-17T06:54:29.375Z,998.79
2018-09-17T06:55:29.612Z,998.80
2018-09-17T06:56:29.664Z,998.76
2018-09-17T06:57:30.173Z,998.78
2018-09-17T06:58:30.227Z,998.80
2018-09-17T06:59:30.469Z,998.74
2018-09-17T07:00:30.672Z,998.67
2018-09-17T07:01:30.667Z,998.65
2018-09-17T07:02:31.548Z,998.63
2018-09-17T07:03:31.410Z,998.69
2018-09-17T07:04:31.692Z,998.63
2018-09-17T07:05:31.938Z,998.63
2018-09-17T07:06:31.390Z,998.69
2018-09-17T07:07:31.629Z,998.64
2018-09-17T07:08:31.786Z,998.59
2018-09-17T07:09:32.251Z,998.60
2018-09-17T07:10:32.182Z,998.60
2018-09-17T07:11:32.387Z,998.54
2018-09-17T07:12:32.608Z,998.50
2018-09-17T07:13:32.781Z,998.44
2018-09-17T07:14:33.047Z,998.45
2018-09-17T07:15:33.287Z,998.46
2018-09-17T07:16:33.274Z,998.45
2018-09-17T07:17:33.458Z,998.43
2018-09-17T07:18:33.644Z,998.42
2018-09-17T07:19:33.839Z,998.36
2018-09-17T07:20:34.025Z,998.40
2018-09-17T07:21:34.223Z,998.40
2018-09-17T07:22:34.404Z,998.41
2018-09-17T07:23:34.646Z,998.36
2018-09-17T07:24:34.860Z,998.33
2018-09-17T07:25:35.043Z,998.31
2018-09-17T07:26:36.271Z,998.33
2018-09-17T07:27:36.736Z,998.29
2018-09-17T07:28:37.399Z,998.30
2018-09-17T07:29:35.874Z,998.33
2018-09-17T07:30:35.998Z,998.30
2018-09-17T07:31:37.232Z,998.35
2018-09-17T07:32:36.637Z,998.30
2018-09-17T07:33:39.783Z,998.28
2018-09-17T07:34:37.445Z,998.28
2018-09-17T07:35:36.783Z,998.23
2018-09-17T07:36:40.035Z,998.21
2018-09-17T07:37:37.665Z,998.22
2018-09-17T07:38:38.659Z,998.25
2018-09-17T07:39:39.407Z,998.24
2018-09-17T07:40:37.996Z,998.25
2018-09-17T07:41:39.605Z,998.25
2018-09-17T07:42:38.338Z,998.21
2018-09-17T07:43:38.749Z,998.23
2018-09-17T07:44:38.692Z,998.21
2018-09-17T07:45:40.123Z,998.15
2018-09-17T07:46:38.664Z,998.17
2018-09-17T07:47:41.282Z,998.17
2018-09-17T07:48:40.275Z,998.08
2018-09-17T07:49:39.003Z,998.10
2018-09-17T07:50:39.355Z,998.12
2018-09-17T07:51:39.310Z,998.14
2018-09-17T07:52:39.997Z,998.08
2018-09-17T07:53:39.913Z,998.14
2018-09-17T07:54:40.607Z,998.12
2018-09-17T07:55:41.038Z,998.10
2018-09-17T07:56:40.402Z,998.08
2018-09-17T07:57:40.218Z,998.06
2018-09-17T07:58:40.310Z,998.09
2018-09-17T07:59:41.305Z,998.09
2018-09-17T08:00:40.644Z,998.10
2018-09-17T08:01:40.824Z,998.09
2018-09-17T08:02:41.705Z,998.07
2018-09-17T08:03:41.219Z,998.06
2018-09-17T08:04:41.420Z,998.07
2018-09-17T08:05:41.796Z,998.06
2018-09-17T08:06:41.809Z,998.09
2018-09-17T08:07:41.986Z,998.08
2018-09-17T08:08:42.163Z,998.07
2018-09-17T08:09:42.375Z,998.08
2018-09-17T08:10:44.484Z,998.04
2018-09-17T08:11:42.665Z,998.05
2018-09-17T08:12:43.090Z,998.07
2018-09-17T08:13:43.140Z,998.07
2018-09-17T08:14:43.623Z,998.08
2018-09-17T08:15:43.490Z,998.10
2018-09-17T08:16:43.842Z,998.05
2018-09-17T08:17:44.435Z,998.09
2018-09-17T08:18:44.104Z,998.09
2018-09-17T08:19:44.409Z,998.11
2018-09-17T08:20:44.885Z,998.10
2018-09-17T08:21:44.588Z,998.06
2018-09-17T08:22:44.646Z,998.09
2018-09-17T08:23:44.635Z,998.04
2018-09-17T08:24:44.727Z,998.06
2018-09-17T08:25:44.935Z,998.02
2018-09-17T08:26:45.117Z,997.99
2018-09-17T08:27:45.705Z,998.02
2018-09-17T08:28:45.549Z,998.02
2018-09-17T08:29:45.617Z,997.99
2018-09-17T08:30:45.793Z,998.01
2018-09-17T08:31:45.986Z,998.00
2018-09-17T08:32:46.170Z,998.03
2018-09-17T08:33:46.338Z,998.03
2018-09-17T08:34:46.524Z,998.02
2018-09-17T08:35:46.708Z,998.04
2018-09-17T08:36:46.883Z,998.04
2018-09-17T08:37:47.066Z,998.03
2018-09-17T08:38:47.271Z,998.03
2018-09-17T08:39:47.442Z,998.08
2018-09-17T08:40:47.635Z,998.07
2018-09-17T08:41:47.864Z,998.09
2018-09-17T08:42:48.021Z,998.08
2018-09-17T08:43:48.540Z,998.08
2018-09-17T08:44:49.922Z,998.08
2018-09-17T08:45:48.541Z,998.09
2018-09-17T08:46:48.623Z,998.07
2018-09-17T08:47:48.802Z,998.04
2018-09-17T08:48:48.992Z,998.04
2018-09-17T08:49:49.160Z,998.01
2018-09-17T08:50:49.337Z,998.02
2018-09-17T08:51:50.810Z,998.00
2018-09-17T08:52:50.939Z,997.96
2018-09-17T08:53:51.004Z,997.96
2018-09-17T08:54:49.955Z,997.93
2018-09-17T08:55:50.126Z,997.95
2018-09-17T08:56:50.301Z,997.90
2018-09-17T08:57:50.483Z,997.96
2018-09-17T08:58:51.453Z,997.92
2018-09-17T08:59:52.696Z,997.93
2018-09-17T09:00:51.034Z,997.96
2018-09-17T09:01:51.197Z,997.96
2018-09-17T09:02:51.374Z,997.97
2018-09-17T09:03:51.566Z,997.98
2018-09-17T09:04:51.743Z,997.96
2018-09-17T09:05:51.972Z,998.02
2018-09-17T09:06:52.032Z,998.00
2018-09-17T09:07:52.280Z,998.03
2018-09-17T09:08:52.932Z,998.06
2018-09-17T09:09:52.702Z,998.03
2018-09-17T09:10:53.826Z,998.04
2018-09-17T09:11:52.997Z,998.01
2018-09-17T09:12:52.930Z,997.95
2018-09-17T09:13:53.231Z,997.93
2018-09-17T09:14:53.340Z,997.93
2018-09-17T09:15:53.412Z,997.91
2018-09-17T09:16:53.599Z,997.89
2018-09-17T09:17:53.782Z,997.88
2018-09-17T09:18:53.982Z,997.84
2018-09-17T09:19:54.159Z,997.86
2018-09-17T09:20:54.459Z,997.87
2018-09-17T09:21:54.582Z,997.89
2018-09-17T09:22:54.658Z,997.89
2018-09-17T09:23:54.840Z,997.94
2018-09-17T09:24:55.048Z,997.90
2018-09-17T09:25:55.210Z,997.90
2018-09-17T09:26:55.969Z,997.91
2018-09-17T09:27:56.601Z,997.91
2018-09-17T09:28:56.190Z,997.92
2018-09-17T09:29:57.607Z,997.91
2018-09-17T09:30:56.177Z,997.90
2018-09-17T09:31:56.327Z,997.89
2018-09-17T09:32:56.516Z,997.86
2018-09-17T09:33:56.700Z,997.85
2018-09-17T09:34:56.878Z,997.82
2018-09-17T09:35:57.062Z,997.82
2018-09-17T09:36:57.255Z,997.83
2018-09-17T09:37:57.437Z,997.82
2018-09-17T09:38:57.633Z,997.82
2018-09-17T09:39:57.840Z,997.85
2018-09-17T09:40:58.042Z,997.84
2018-09-17T09:42:00.078Z,997.84
2018-09-17T09:42:58.450Z,997.81
2018-09-17T09:43:58.633Z,997.86
2018-09-17T09:44:58.840Z,997.85
2018-09-17T09:45:59.013Z,997.80
2018-09-17T09:46:59.193Z,997.82
2018-09-17T09:48:00.450Z,997.80
2018-09-17T09:48:59.553Z,997.78
2018-09-17T09:49:59.748Z,997.79
2018-09-17T09:50:59.991Z,997.78
2018-09-17T09:52:00.135Z,997.76
2018-09-17T09:53:00.312Z,997.71
2018-09-17T09:54:00.615Z,997.75
2018-09-17T09:55:00.644Z,997.71
2018-09-17T09:56:00.835Z,997.70
2018-09-17T09:57:04.496Z,997.69
2018-09-17T09:58:01.552Z,997.65
2018-09-17T09:59:02.396Z,997.66
2018-09-17T10:00:04.904Z,997.67
2018-09-17T10:01:01.848Z,997.62
2018-09-17T10:02:03.124Z,997.61
2018-09-17T10:03:02.244Z,997.62
2018-09-17T10:04:06.835Z,997.58
2018-09-17T10:05:05.686Z,997.59
2018-09-17T10:06:03.877Z,997.59
2018-09-17T10:07:02.955Z,997.59
2018-09-17T10:08:03.168Z,997.58
2018-09-17T10:09:03.368Z,997.54
2018-09-17T10:10:03.576Z,997.57
2018-09-17T10:11:03.807Z,997.56
2018-09-17T10:12:04.791Z,997.53
2018-09-17T10:13:04.119Z,997.46
2018-09-17T10:14:04.309Z,997.44
2018-09-17T10:15:04.507Z,997.48
2018-09-17T10:16:04.702Z,997.47
2018-09-17T10:17:05.007Z,997.45
2018-09-17T10:18:05.130Z,997.45
2018-09-17T10:19:05.348Z,997.40
2018-09-17T10:20:05.548Z,997.43
2018-09-17T10:21:05.745Z,997.40
2018-09-17T10:22:05.967Z,997.38
2018-09-17T10:23:06.143Z,997.37
2018-09-17T10:24:06.363Z,997.39
2018-09-17T10:25:06.553Z,997.41
2018-09-17T10:26:06.783Z,997.43
2018-09-17T10:27:06.942Z,997.46
2018-09-17T10:28:07.167Z,997.45
2018-09-17T10:29:07.403Z,997.48
2018-09-17T10:30:07.488Z,997.48
2018-09-17T10:31:07.688Z,997.49
2018-09-17T10:32:07.889Z,997.49
2018-09-17T10:33:08.129Z,997.42
2018-09-17T10:34:08.310Z,997.44
2018-09-17T10:35:08.484Z,997.42
2018-09-17T10:36:08.686Z,997.40
2018-09-17T10:37:08.875Z,997.40
2018-09-17T10:38:09.076Z,997.42
2018-09-17T10:39:09.261Z,997.44
2018-09-17T10:40:09.478Z,997.43
2018-09-17T10:41:09.655Z,997.42
2018-09-17T10:42:09.849Z,997.42
2018-09-17T10:43:10.041Z,997.36
2018-09-17T10:44:10.239Z,997.32
2018-09-17T10:45:10.469Z,997.27
2018-09-17T10:46:10.621Z,997.23
2018-09-17T10:47:10.824Z,997.25
2018-09-17T10:48:11.011Z,997.29
2018-09-17T10:49:11.202Z,997.28
2018-09-17T10:50:11.412Z,997.28
2018-09-17T10:51:16.114Z,997.28
2018-09-17T10:52:11.728Z,997.31
2018-09-17T10:53:11.918Z,997.27
2018-09-17T10:54:12.112Z,997.24
2018-09-17T10:55:12.311Z,997.25
2018-09-17T10:56:12.498Z,997.25
2018-09-17T10:57:12.736Z,997.25
2018-09-17T10:58:12.883Z,997.23
2018-09-17T10:59:13.063Z,997.18
2018-09-17T11:00:13.263Z,997.24
2018-09-17T11:01:13.465Z,997.16
2018-09-17T11:02:14.563Z,997.13
2018-09-17T11:03:13.893Z,997.18
2018-09-17T11:04:14.084Z,997.12
2018-09-17T11:05:14.301Z,997.14
2018-09-17T11:06:15.724Z,997.19
2018-09-17T11:07:14.692Z,997.16
2018-09-17T11:08:14.933Z,997.18
2018-09-17T11:09:15.143Z,997.11
2018-09-17T11:10:15.209Z,997.16
2018-09-17T11:11:15.425Z,997.16
2018-09-17T11:12:15.632Z,997.10
2018-09-17T11:13:15.826Z,997.15
2018-09-17T11:14:16.155Z,997.19
2018-09-17T11:15:16.245Z,997.13
2018-09-17T11:16:16.428Z,997.13
2018-09-17T11:17:16.668Z,997.11
2018-09-17T11:18:16.825Z,997.06
2018-09-17T11:19:17.012Z,997.10
2018-09-17T11:20:17.201Z,997.08
2018-09-17T11:21:23.175Z,997.06
2018-09-17T11:22:20.020Z,997.11
2018-09-17T11:23:18.996Z,997.06
2018-09-17T11:24:19.982Z,997.05
2018-09-17T11:25:19.696Z,997.06
2018-09-17T11:26:19.208Z,996.98
2018-09-17T11:27:20.108Z,997.00
2018-09-17T11:28:20.746Z,996.99
2018-09-17T11:29:19.672Z,996.94
2018-09-17T11:30:19.952Z,996.94
2018-09-17T11:31:20.756Z,996.99
2018-09-17T11:32:20.465Z,996.98
2018-09-17T11:33:20.071Z,997.03
2018-09-17T11:34:21.416Z,996.95
2018-09-17T11:35:20.089Z,996.94
2018-09-17T11:36:20.196Z,996.91
2018-09-17T11:37:20.446Z,996.91
2018-09-17T11:38:20.520Z,996.86
2018-09-17T11:39:22.105Z,996.86
2018-09-17T11:40:20.983Z,996.87
2018-09-17T11:41:21.500Z,996.85
2018-09-17T11:42:21.264Z,996.88
2018-09-17T11:43:21.488Z,996.86
2018-09-17T11:44:22.753Z,996.86
2018-09-17T11:45:22.247Z,996.89
2018-09-17T11:46:22.409Z,996.77
2018-09-17T11:47:25.586Z,996.76
2018-09-17T11:48:25.202Z,996.76
2018-09-17T11:49:23.908Z,996.70
2018-09-17T11:50:25.312Z,996.69
2018-09-17T11:51:26.805Z,996.78
2018-09-17T11:52:25.114Z,996.77
2018-09-17T11:53:25.108Z,996.73
2018-09-17T11:54:26.935Z,996.68
2018-09-17T11:55:26.292Z,996.69
2018-09-17T11:56:25.102Z,996.65
2018-09-17T11:57:27.043Z,996.63
2018-09-17T11:58:25.164Z,996.60
2018-09-17T11:59:24.967Z,996.52
2018-09-17T12:00:27.015Z,996.56
2018-09-17T12:01:26.031Z,996.61
2018-09-17T12:02:26.986Z,996.58
2018-09-17T12:03:28.989Z,996.51
2018-09-17T12:04:27.231Z,996.48
2018-09-17T12:05:27.614Z,996.48
2018-09-17T12:06:25.368Z,996.49
2018-09-17T12:07:25.613Z,996.51
2018-09-17T12:08:25.751Z,996.50
2018-09-17T12:09:25.942Z,996.46
2018-09-17T12:10:26.128Z,996.41
2018-09-17T12:11:26.313Z,996.38
2018-09-17T12:12:26.504Z,996.34
2018-09-17T12:13:26.695Z,996.30
2018-09-17T12:14:26.935Z,996.26
2018-09-17T12:15:27.136Z,996.26
2018-09-17T12:16:27.193Z,996.24
2018-09-17T12:17:27.380Z,996.24
2018-09-17T12:18:27.565Z,996.20
2018-09-17T12:19:27.744Z,996.21
2018-09-17T12:20:27.937Z,996.18
2018-09-17T12:21:28.117Z,996.14
2018-09-17T12:22:28.309Z,996.12
2018-09-17T12:23:28.546Z,996.07
2018-09-17T12:24:28.716Z,996.08
2018-09-17T12:25:28.903Z,996.06
2018-09-17T12:26:29.084Z,996.00
2018-09-17T12:27:29.265Z,996.00
2018-09-17T12:28:29.464Z,996.00
2018-09-17T12:29:29.646Z,996.03
2018-09-17T12:30:30.130Z,996.00